CES8667 ZLXY-ZSNJ
Flight info
| Callsign | CES8667 |
|---|---|
| Flight time | N/A |
| Altitude | 35100 |
| Route | PUMUR7U PUMUR W286 SUDGO W4 UPSIK W282 NUGSA DCT ML W118 REVKU DCT FYG B208 HFE W51 LEGIV W164 OREVO |
| Aircraft | B738/M-SDE2E3FGHIRWXY/LB1 |
Departure
| Time | 2026-05-09 13:34 |
|---|---|
| Airport | Xi'an Xianyang International Airport (ZLXY) |
Arrival
| Time | N/A |
|---|---|
| Airport | Nanjing Lukou International Airport (ZSNJ) |
| Time | Latitude | Longitude | Altitude | Speed | Heading |
|---|---|---|---|---|---|
| 2026-05-09 13:00 | 34.43269 | 108.75864 | 1522 ft | 0 kts | 12° |
| 2026-05-09 13:12 | 34.43264 | 108.75862 | 1520 ft | 4 kts | 13° |
| 2026-05-09 13:12 | 34.43238 | 108.75854 | 1519 ft | 4 kts | 14° |
| 2026-05-09 13:13 | 34.43212 | 108.75848 | 1519 ft | 4 kts | 7° |
| 2026-05-09 13:13 | 34.43185 | 108.75844 | 1519 ft | 4 kts | 7° |
| 2026-05-09 13:13 | 34.43169 | 108.75842 | 1519 ft | 1 kts | 4° |
| 2026-05-09 13:13 | 34.43167 | 108.75842 | 1519 ft | 0 kts | 4° |
| 2026-05-09 13:28 | 34.43169 | 108.75843 | 1522 ft | 1 kts | 12° |
| 2026-05-09 13:28 | 34.43182 | 108.75850 | 1520 ft | 3 kts | 43° |
| 2026-05-09 13:28 | 34.43179 | 108.75870 | 1522 ft | 3 kts | 129° |
| 2026-05-09 13:28 | 34.43160 | 108.75870 | 1522 ft | 4 kts | 193° |
| 2026-05-09 13:29 | 34.43116 | 108.75855 | 1519 ft | 8 kts | 203° |
| 2026-05-09 13:29 | 34.43075 | 108.75801 | 1518 ft | 10 kts | 230° |
| 2026-05-09 13:29 | 34.43020 | 108.75721 | 1522 ft | 14 kts | 230° |
| 2026-05-09 13:29 | 34.42961 | 108.75638 | 1522 ft | 14 kts | 228° |
| 2026-05-09 13:30 | 34.42893 | 108.75547 | 1522 ft | 13 kts | 227° |
| 2026-05-09 13:30 | 34.42824 | 108.75453 | 1522 ft | 17 kts | 229° |
| 2026-05-09 13:30 | 34.42771 | 108.75380 | 1522 ft | 9 kts | 229° |
| 2026-05-09 13:30 | 34.42713 | 108.75328 | 1518 ft | 11 kts | 188° |
| 2026-05-09 13:31 | 34.42671 | 108.75357 | 1520 ft | 8 kts | 130° |
| 2026-05-09 13:31 | 34.42620 | 108.75412 | 1521 ft | 12 kts | 147° |
| 2026-05-09 13:31 | 34.42537 | 108.75393 | 1522 ft | 15 kts | 225° |
| 2026-05-09 13:31 | 34.42461 | 108.75293 | 1522 ft | 18 kts | 227° |
| 2026-05-09 13:32 | 34.42430 | 108.75251 | 1522 ft | 7 kts | 228° |
| 2026-05-09 13:32 | 34.42314 | 108.75193 | 1521 ft | 14 kts | 146° |
| 2026-05-09 13:32 | 34.42253 | 108.75283 | 1521 ft | 15 kts | 84° |
| 2026-05-09 13:33 | 34.42307 | 108.75397 | 1520 ft | 19 kts | 50° |
| 2026-05-09 13:33 | 34.42551 | 108.75730 | 1519 ft | 87 kts | 49° |
| 2026-05-09 13:33 | 34.43098 | 108.76481 | 1523 ft | 148 kts | 49° |
| 2026-05-09 13:33 | 34.43901 | 108.77538 | 1667 ft | 187 kts | 47° |
| 2026-05-09 13:34 | 34.44811 | 108.78783 | 2158 ft | 207 kts | 49° |
| 2026-05-09 13:34 | 34.45774 | 108.80133 | 2815 ft | 210 kts | 48° |
| 2026-05-09 13:34 | 34.46724 | 108.81447 | 3653 ft | 210 kts | 48° |
| 2026-05-09 13:34 | 34.47740 | 108.82849 | 3977 ft | 235 kts | 48° |
| 2026-05-09 13:35 | 34.48868 | 108.84416 | 4210 ft | 256 kts | 48° |
| 2026-05-09 13:35 | 34.50005 | 108.85992 | 4628 ft | 269 kts | 48° |
| 2026-05-09 13:35 | 34.51205 | 108.87660 | 4882 ft | 286 kts | 48° |
| 2026-05-09 13:35 | 34.52522 | 108.89499 | 5632 ft | 290 kts | 47° |
| 2026-05-09 13:36 | 34.53838 | 108.91333 | 6545 ft | 289 kts | 47° |
| 2026-05-09 13:36 | 34.55132 | 108.93187 | 7371 ft | 289 kts | 49° |
| 2026-05-09 13:36 | 34.56407 | 108.95064 | 8279 ft | 287 kts | 48° |
| 2026-05-09 13:36 | 34.57673 | 108.96929 | 9185 ft | 287 kts | 46° |
| 2026-05-09 13:37 | 34.59182 | 108.98449 | 10005 ft | 282 kts | 21° |
| 2026-05-09 13:37 | 34.61065 | 108.98941 | 10793 ft | 280 kts | 357° |
| 2026-05-09 13:37 | 34.62985 | 108.98426 | 11246 ft | 295 kts | 335° |
| 2026-05-09 13:37 | 34.64662 | 108.96854 | 11424 ft | 321 kts | 310° |
| 2026-05-09 13:38 | 34.65844 | 108.94443 | 11594 ft | 345 kts | 298° |
| 2026-05-09 13:38 | 34.66934 | 108.91766 | 11820 ft | 362 kts | 299° |
| 2026-05-09 13:38 | 34.68085 | 108.89016 | 12323 ft | 369 kts | 298° |
| 2026-05-09 13:38 | 34.68914 | 108.86049 | 12916 ft | 378 kts | 279° |
| 2026-05-09 13:39 | 34.68781 | 108.82855 | 13586 ft | 386 kts | 259° |
| 2026-05-09 13:39 | 34.67776 | 108.79817 | 14181 ft | 394 kts | 240° |
| 2026-05-09 13:39 | 34.66013 | 108.77250 | 14793 ft | 399 kts | 228° |
| 2026-05-09 13:39 | 34.64105 | 108.74817 | 15385 ft | 401 kts | 229° |
| 2026-05-09 13:40 | 34.62209 | 108.72330 | 15965 ft | 404 kts | 230° |
| 2026-05-09 13:40 | 34.60308 | 108.69803 | 16557 ft | 406 kts | 230° |
| 2026-05-09 13:40 | 34.58281 | 108.67448 | 17125 ft | 412 kts | 216° |
| 2026-05-09 13:40 | 34.55650 | 108.66038 | 17697 ft | 420 kts | 194° |
| 2026-05-09 13:41 | 34.52732 | 108.65823 | 18292 ft | 424 kts | 175° |
| 2026-05-09 13:41 | 34.49862 | 108.66706 | 18736 ft | 431 kts | 155° |
| 2026-05-09 13:41 | 34.47238 | 108.68467 | 19199 ft | 433 kts | 150° |
| 2026-05-09 13:41 | 34.44617 | 108.70287 | 19641 ft | 437 kts | 151° |
| 2026-05-09 13:42 | 34.41979 | 108.72094 | 20075 ft | 441 kts | 152° |
| 2026-05-09 13:42 | 34.39289 | 108.73913 | 20538 ft | 444 kts | 152° |
| 2026-05-09 13:42 | 34.36588 | 108.75723 | 21004 ft | 446 kts | 152° |
| 2026-05-09 13:42 | 34.33866 | 108.77539 | 21444 ft | 449 kts | 153° |
| 2026-05-09 13:43 | 34.31129 | 108.79363 | 21865 ft | 452 kts | 153° |
| 2026-05-09 13:43 | 34.30175 | 108.79999 | 22013 ft | 453 kts | 153° |
| 2026-05-09 13:48 | 34.28937 | 108.80823 | 22200 ft | 454 kts | 153° |
| 2026-05-09 13:48 | 34.26184 | 108.82656 | 22611 ft | 457 kts | 153° |
| 2026-05-09 13:48 | 34.23399 | 108.84533 | 23018 ft | 460 kts | 150° |
| 2026-05-09 13:48 | 34.20911 | 108.86989 | 23353 ft | 468 kts | 131° |
| 2026-05-09 13:49 | 34.19015 | 108.90174 | 23745 ft | 470 kts | 126° |
| 2026-05-09 13:49 | 34.17104 | 108.93390 | 24041 ft | 474 kts | 128° |
| 2026-05-09 13:49 | 34.15112 | 108.96574 | 24305 ft | 478 kts | 129° |
| 2026-05-09 13:49 | 34.13090 | 108.99737 | 24601 ft | 481 kts | 129° |
| 2026-05-09 13:50 | 34.11034 | 109.02946 | 24909 ft | 483 kts | 129° |
| 2026-05-09 13:50 | 34.08985 | 109.06162 | 25213 ft | 486 kts | 129° |
| 2026-05-09 13:50 | 34.06929 | 109.09401 | 25491 ft | 489 kts | 129° |
| 2026-05-09 13:50 | 34.04852 | 109.12649 | 25750 ft | 492 kts | 129° |
| 2026-05-09 13:51 | 34.02748 | 109.15912 | 26031 ft | 495 kts | 130° |
| 2026-05-09 13:51 | 34.00636 | 109.19177 | 26298 ft | 498 kts | 130° |
| 2026-05-09 13:51 | 33.98502 | 109.22473 | 26535 ft | 501 kts | 130° |
| 2026-05-09 13:51 | 33.96436 | 109.25667 | 26793 ft | 503 kts | 130° |
| 2026-05-09 13:52 | 33.94262 | 109.29024 | 27080 ft | 505 kts | 130° |
| 2026-05-09 13:52 | 33.92095 | 109.32372 | 27314 ft | 508 kts | 130° |
| 2026-05-09 13:52 | 33.89922 | 109.35728 | 27553 ft | 511 kts | 130° |
| 2026-05-09 13:52 | 33.87739 | 109.39097 | 27814 ft | 513 kts | 130° |
| 2026-05-09 13:53 | 33.85546 | 109.42477 | 28043 ft | 515 kts | 130° |
| 2026-05-09 13:53 | 33.83341 | 109.45873 | 28245 ft | 518 kts | 130° |
| 2026-05-09 13:53 | 33.81122 | 109.49287 | 28527 ft | 519 kts | 130° |
| 2026-05-09 13:53 | 33.78866 | 109.52643 | 28925 ft | 515 kts | 136° |
| 2026-05-09 13:54 | 33.76157 | 109.55257 | 29184 ft | 505 kts | 156° |
| 2026-05-09 13:54 | 33.72975 | 109.56882 | 29555 ft | 494 kts | 169° |
| 2026-05-09 13:54 | 33.69969 | 109.57594 | 29814 ft | 484 kts | 182° |
| 2026-05-09 13:54 | 33.66650 | 109.57579 | 30155 ft | 475 kts | 189° |
| 2026-05-09 13:55 | 33.63355 | 109.57370 | 30484 ft | 474 kts | 189° |
| 2026-05-09 13:55 | 33.60070 | 109.57202 | 30751 ft | 475 kts | 188° |
| 2026-05-09 13:55 | 33.56775 | 109.57083 | 31072 ft | 474 kts | 188° |
| 2026-05-09 13:55 | 33.53489 | 109.57046 | 31401 ft | 477 kts | 182° |
| 2026-05-09 13:56 | 33.50219 | 109.57916 | 31609 ft | 495 kts | 162° |
| 2026-05-09 13:56 | 33.47224 | 109.60059 | 31891 ft | 508 kts | 143° |
| 2026-05-09 13:56 | 33.44839 | 109.63189 | 32202 ft | 515 kts | 125° |
| 2026-05-09 13:56 | 33.43290 | 109.67056 | 32505 ft | 518 kts | 106° |
| 2026-05-09 13:57 | 33.42712 | 109.71273 | 32880 ft | 515 kts | 89° |
| 2026-05-09 13:57 | 33.43049 | 109.75513 | 33140 ft | 512 kts | 79° |
| 2026-05-09 13:57 | 33.43546 | 109.79740 | 33327 ft | 515 kts | 79° |
| 2026-05-09 13:57 | 33.44032 | 109.83987 | 33551 ft | 517 kts | 80° |
| 2026-05-09 13:58 | 33.44490 | 109.88243 | 33886 ft | 516 kts | 81° |
| 2026-05-09 13:58 | 33.44922 | 109.92487 | 34188 ft | 514 kts | 81° |
| 2026-05-09 13:58 | 33.45337 | 109.96736 | 34332 ft | 516 kts | 81° |
| 2026-05-09 13:58 | 33.45743 | 110.00998 | 34498 ft | 517 kts | 81° |
| 2026-05-09 13:59 | 33.46145 | 110.05265 | 34686 ft | 517 kts | 81° |
| 2026-05-09 13:59 | 33.46548 | 110.09551 | 34805 ft | 520 kts | 81° |
| 2026-05-09 13:59 | 33.46953 | 110.13847 | 34930 ft | 522 kts | 81° |
| 2026-05-09 13:59 | 33.47357 | 110.18145 | 35097 ft | 522 kts | 81° |
| 2026-05-09 14:00 | 33.47766 | 110.22473 | 35251 ft | 523 kts | 81° |
| 2026-05-09 14:00 | 33.47902 | 110.23916 | 35309 ft | 524 kts | 81° |
| 2026-05-09 14:00 | 33.48578 | 110.31134 | 35586 ft | 525 kts | 81° |
| 2026-05-09 14:00 | 33.48979 | 110.35466 | 35740 ft | 526 kts | 81° |
| 2026-05-09 14:01 | 33.49376 | 110.39780 | 35973 ft | 525 kts | 82° |
| 2026-05-09 14:01 | 33.49778 | 110.44128 | 36157 ft | 526 kts | 81° |
| 2026-05-09 14:01 | 33.50180 | 110.48476 | 36281 ft | 528 kts | 81° |
| 2026-05-09 14:01 | 33.50580 | 110.52841 | 36441 ft | 529 kts | 82° |
| 2026-05-09 14:02 | 33.50964 | 110.57063 | 36630 ft | 529 kts | 81° |
| 2026-05-09 14:02 | 33.51359 | 110.61436 | 36803 ft | 529 kts | 81° |
| 2026-05-09 14:02 | 33.51752 | 110.65794 | 36910 ft | 527 kts | 82° |
| 2026-05-09 14:02 | 33.52143 | 110.70154 | 36987 ft | 527 kts | 81° |
| 2026-05-09 14:03 | 33.52927 | 110.78920 | 37003 ft | 533 kts | 83° |
| 2026-05-09 14:03 | 33.52601 | 110.87822 | 37008 ft | 542 kts | 102° |
| 2026-05-09 14:04 | 33.50244 | 110.96379 | 37004 ft | 542 kts | 117° |
| 2026-05-09 14:04 | 33.47147 | 111.04622 | 36986 ft | 546 kts | 117° |
| 2026-05-09 14:05 | 33.44079 | 111.12920 | 36987 ft | 548 kts | 116° |
| 2026-05-09 14:05 | 33.41043 | 111.21296 | 36989 ft | 550 kts | 116° |
| 2026-05-09 14:06 | 33.38015 | 111.29685 | 36981 ft | 551 kts | 116° |
| 2026-05-09 14:06 | 33.34972 | 111.38082 | 36976 ft | 551 kts | 116° |
| 2026-05-09 14:07 | 33.31923 | 111.46457 | 36972 ft | 551 kts | 116° |
| 2026-05-09 14:07 | 33.28868 | 111.54825 | 36980 ft | 550 kts | 116° |
| 2026-05-09 14:08 | 33.25813 | 111.63172 | 36975 ft | 550 kts | 116° |
| 2026-05-09 14:08 | 33.22745 | 111.71532 | 36973 ft | 550 kts | 116° |
| 2026-05-09 14:09 | 33.19960 | 111.79105 | 36969 ft | 549 kts | 116° |
| 2026-05-09 14:09 | 33.16377 | 111.88823 | 36968 ft | 549 kts | 116° |
| 2026-05-09 14:10 | 33.12281 | 111.99896 | 36969 ft | 549 kts | 117° |
| 2026-05-09 14:11 | 33.09198 | 112.08207 | 36967 ft | 549 kts | 117° |
| 2026-05-09 14:11 | 33.06106 | 112.16523 | 36966 ft | 549 kts | 117° |
| 2026-05-09 14:12 | 33.03011 | 112.24823 | 36961 ft | 550 kts | 117° |
| 2026-05-09 14:12 | 32.99910 | 112.33122 | 36965 ft | 550 kts | 117° |
| 2026-05-09 14:13 | 32.96872 | 112.41234 | 36955 ft | 550 kts | 117° |
| 2026-05-09 14:15 | 32.82500 | 112.73042 | 36963 ft | 547 kts | 126° |
| 2026-05-09 14:15 | 32.80750 | 112.76374 | 36963 ft | 547 kts | 126° |
| 2026-05-09 14:20 | 32.80607 | 112.76649 | 36963 ft | 547 kts | 126° |
| 2026-05-09 14:21 | 32.74643 | 112.88197 | 36962 ft | 549 kts | 126° |
| 2026-05-09 14:21 | 32.70007 | 112.97206 | 36965 ft | 549 kts | 126° |
| 2026-05-09 14:22 | 32.66021 | 113.04922 | 36970 ft | 550 kts | 126° |
| 2026-05-09 14:22 | 32.62691 | 113.11347 | 36972 ft | 550 kts | 126° |
| 2026-05-09 14:23 | 32.58677 | 113.19078 | 36970 ft | 551 kts | 126° |
| 2026-05-09 14:23 | 32.53995 | 113.28076 | 36977 ft | 551 kts | 126° |
| 2026-05-09 14:24 | 32.50644 | 113.34503 | 36987 ft | 552 kts | 126° |
| 2026-05-09 14:24 | 32.46607 | 113.42230 | 36983 ft | 552 kts | 126° |
| 2026-05-09 14:25 | 32.42576 | 113.49937 | 36976 ft | 552 kts | 126° |
| 2026-05-09 14:25 | 32.37960 | 113.59005 | 36969 ft | 557 kts | 117° |
| 2026-05-09 14:26 | 32.37085 | 113.61852 | 36969 ft | 560 kts | 104° |
| 2026-05-09 14:26 | 32.36562 | 113.66420 | 37001 ft | 559 kts | 88° |
| 2026-05-09 14:26 | 32.36914 | 113.70849 | 36983 ft | 553 kts | 72° |
| 2026-05-09 14:26 | 32.38023 | 113.75103 | 37027 ft | 547 kts | 66° |
| 2026-05-09 14:27 | 32.40448 | 113.83646 | 36995 ft | 549 kts | 67° |
| 2026-05-09 14:27 | 32.43052 | 113.93369 | 36981 ft | 551 kts | 68° |
| 2026-05-09 14:28 | 32.44827 | 114.00222 | 36979 ft | 551 kts | 68° |
| 2026-05-09 14:28 | 32.47427 | 114.10334 | 36984 ft | 550 kts | 68° |
| 2026-05-09 14:29 | 32.49283 | 114.17544 | 36984 ft | 550 kts | 68° |
| 2026-05-09 14:29 | 32.51876 | 114.27624 | 36985 ft | 549 kts | 68° |
| 2026-05-09 14:30 | 32.53724 | 114.34821 | 36981 ft | 549 kts | 68° |
| 2026-05-09 14:30 | 32.56298 | 114.44888 | 36983 ft | 548 kts | 68° |
| 2026-05-09 14:31 | 32.58501 | 114.53533 | 36983 ft | 548 kts | 68° |
| 2026-05-09 14:31 | 32.60691 | 114.62154 | 36984 ft | 547 kts | 69° |
| 2026-05-09 14:32 | 32.62339 | 114.68659 | 36984 ft | 547 kts | 69° |
| 2026-05-09 14:32 | 32.64521 | 114.77296 | 36988 ft | 546 kts | 69° |
| 2026-05-09 14:33 | 32.66691 | 114.85915 | 36987 ft | 546 kts | 69° |
| 2026-05-09 14:33 | 32.68855 | 114.94539 | 36986 ft | 546 kts | 69° |
| 2026-05-09 14:34 | 32.71008 | 115.03142 | 36990 ft | 546 kts | 69° |
| 2026-05-09 14:34 | 32.73158 | 115.11767 | 36992 ft | 545 kts | 69° |
| 2026-05-09 14:35 | 32.75301 | 115.20385 | 36987 ft | 545 kts | 69° |
| 2026-05-09 14:35 | 32.77654 | 115.29884 | 36990 ft | 545 kts | 69° |
| 2026-05-09 14:36 | 32.79376 | 115.36860 | 36992 ft | 545 kts | 69° |
| 2026-05-09 14:36 | 32.81503 | 115.45496 | 36987 ft | 545 kts | 69° |
| 2026-05-09 14:37 | 32.83617 | 115.54110 | 36991 ft | 545 kts | 69° |
| 2026-05-09 14:37 | 32.86082 | 115.64194 | 36990 ft | 545 kts | 70° |
| 2026-05-09 14:38 | 32.86609 | 115.71415 | 37009 ft | 551 kts | 99° |
| 2026-05-09 14:38 | 32.85658 | 115.75810 | 36987 ft | 549 kts | 114° |
| 2026-05-09 14:38 | 32.83932 | 115.79779 | 36989 ft | 541 kts | 130° |
| 2026-05-09 14:39 | 32.79159 | 115.86559 | 36989 ft | 536 kts | 137° |
| 2026-05-09 14:39 | 32.73486 | 115.94372 | 36979 ft | 538 kts | 136° |
| 2026-05-09 14:40 | 32.68677 | 116.01175 | 36988 ft | 539 kts | 135° |
| 2026-05-09 14:40 | 32.64687 | 116.06851 | 36991 ft | 539 kts | 135° |
| 2026-05-09 14:41 | 32.59881 | 116.13663 | 37000 ft | 540 kts | 135° |
| 2026-05-09 14:41 | 32.55065 | 116.20480 | 36998 ft | 541 kts | 135° |
| 2026-05-09 14:42 | 32.50302 | 116.27373 | 37002 ft | 542 kts | 134° |
| 2026-05-09 14:42 | 32.45558 | 116.34280 | 37008 ft | 542 kts | 135° |
| 2026-05-09 14:43 | 32.40892 | 116.41038 | 37003 ft | 542 kts | 135° |
| 2026-05-09 14:43 | 32.35286 | 116.49122 | 37005 ft | 542 kts | 135° |
| 2026-05-09 14:44 | 32.30503 | 116.56003 | 37002 ft | 543 kts | 135° |
| 2026-05-09 14:44 | 32.27670 | 116.60075 | 37006 ft | 543 kts | 135° |
| 2026-05-09 14:45 | 32.22155 | 116.67991 | 37008 ft | 542 kts | 135° |
| 2026-05-09 14:45 | 32.17373 | 116.74828 | 37013 ft | 542 kts | 135° |
| 2026-05-09 14:46 | 32.13335 | 116.80460 | 37017 ft | 542 kts | 136° |
| 2026-05-09 14:46 | 32.08441 | 116.87228 | 37016 ft | 542 kts | 136° |
| 2026-05-09 14:47 | 32.03568 | 116.93987 | 37022 ft | 542 kts | 136° |
| 2026-05-09 14:47 | 31.98700 | 117.00744 | 37019 ft | 543 kts | 136° |
| 2026-05-09 14:48 | 31.93828 | 117.07513 | 37018 ft | 543 kts | 136° |
| 2026-05-09 14:48 | 31.88952 | 117.14304 | 37018 ft | 544 kts | 136° |
| 2026-05-09 14:49 | 31.84074 | 117.21084 | 37020 ft | 544 kts | 136° |
| 2026-05-09 14:49 | 31.79188 | 117.27860 | 37022 ft | 545 kts | 136° |
| 2026-05-09 14:50 | 31.75719 | 117.32857 | 37026 ft | 548 kts | 132° |
| 2026-05-09 14:50 | 31.72036 | 117.38942 | 37033 ft | 550 kts | 129° |
| 2026-05-09 14:51 | 31.67690 | 117.46276 | 37028 ft | 550 kts | 130° |
| 2026-05-09 14:51 | 31.62833 | 117.54974 | 37009 ft | 558 kts | 115° |
| 2026-05-09 14:52 | 31.61348 | 117.62099 | 37030 ft | 559 kts | 92° |
| 2026-05-09 14:52 | 31.61781 | 117.69274 | 37072 ft | 548 kts | 78° |
| 2026-05-09 14:53 | 31.62839 | 117.78067 | 37002 ft | 550 kts | 79° |
| 2026-05-09 14:53 | 31.63308 | 117.82451 | 36473 ft | 555 kts | 80° |
| 2026-05-09 14:53 | 31.63898 | 117.88389 | 35736 ft | 548 kts | 81° |
| 2026-05-09 14:54 | 31.64182 | 117.91336 | 35407 ft | 545 kts | 81° |
| 2026-05-09 14:54 | 31.64600 | 117.95711 | 34937 ft | 538 kts | 82° |
| 2026-05-09 14:54 | 31.65022 | 118.00101 | 33994 ft | 542 kts | 82° |
| 2026-05-09 14:54 | 31.65409 | 118.04121 | 33501 ft | 535 kts | 82° |
| 2026-05-09 14:55 | 31.65723 | 118.07372 | 33027 ft | 531 kts | 82° |
| 2026-05-09 14:55 | 31.66138 | 118.11656 | 31702 ft | 542 kts | 82° |
| 2026-05-09 14:55 | 31.66551 | 118.15952 | 30836 ft | 543 kts | 82° |
| 2026-05-09 14:55 | 31.66795 | 118.20387 | 30092 ft | 541 kts | 89° |
| 2026-05-09 14:56 | 31.66716 | 118.24709 | 29331 ft | 537 kts | 91° |
| 2026-05-09 14:56 | 31.66554 | 118.29053 | 28575 ft | 533 kts | 92° |
| 2026-05-09 14:56 | 31.66376 | 118.33361 | 27674 ft | 532 kts | 92° |
| 2026-05-09 14:56 | 31.66157 | 118.39126 | 26732 ft | 525 kts | 91° |
| 2026-05-09 14:57 | 31.66061 | 118.41974 | 26285 ft | 521 kts | 91° |
| 2026-05-09 14:57 | 31.65931 | 118.46193 | 25632 ft | 515 kts | 91° |
| 2026-05-09 14:57 | 31.65812 | 118.50364 | 24995 ft | 509 kts | 91° |
| 2026-05-09 14:57 | 31.65661 | 118.55855 | 24126 ft | 502 kts | 91° |
| 2026-05-09 14:58 | 31.65548 | 118.59913 | 23461 ft | 498 kts | 91° |
| 2026-05-09 14:58 | 31.65473 | 118.62596 | 22958 ft | 494 kts | 91° |
| 2026-05-09 14:58 | 31.65359 | 118.66601 | 22267 ft | 487 kts | 91° |
| 2026-05-09 14:58 | 31.65206 | 118.71836 | 21412 ft | 478 kts | 91° |
| 2026-05-09 14:59 | 31.65129 | 118.74418 | 20998 ft | 474 kts | 91° |
| 2026-05-09 14:59 | 31.65015 | 118.78238 | 20402 ft | 467 kts | 91° |
| 2026-05-09 14:59 | 31.64901 | 118.82023 | 19778 ft | 461 kts | 91° |
| 2026-05-09 14:59 | 31.64787 | 118.85745 | 19171 ft | 456 kts | 91° |
| 2026-05-09 15:00 | 31.64677 | 118.89305 | 18964 ft | 439 kts | 91° |
| 2026-05-09 15:00 | 31.64569 | 118.92738 | 19227 ft | 401 kts | 91° |
| 2026-05-09 15:00 | 31.64471 | 118.95812 | 19475 ft | 366 kts | 91° |
| 2026-05-09 15:00 | 31.64380 | 118.98663 | 19517 ft | 339 kts | 91° |
| 2026-05-09 15:01 | 31.64214 | 119.03890 | 19282 ft | 304 kts | 91° |
| 2026-05-09 15:01 | 31.64154 | 119.05771 | 19209 ft | 291 kts | 91° |
| 2026-05-09 15:01 | 31.64061 | 119.08675 | 19075 ft | 272 kts | 91° |
| 2026-05-09 15:02 | 31.64013 | 119.10132 | 18996 ft | 263 kts | 91° |
| 2026-05-09 15:02 | 31.63945 | 119.12214 | 18853 ft | 251 kts | 90° |
| 2026-05-09 15:02 | 31.63879 | 119.14259 | 18460 ft | 252 kts | 91° |
| 2026-05-09 15:02 | 31.63790 | 119.16993 | 17875 ft | 253 kts | 91° |
| 2026-05-09 15:03 | 31.63745 | 119.18384 | 17449 ft | 259 kts | 91° |
| 2026-05-09 15:03 | 31.63675 | 119.20512 | 16859 ft | 266 kts | 91° |
| 2026-05-09 15:03 | 31.63603 | 119.22661 | 16574 ft | 258 kts | 91° |
| 2026-05-09 15:03 | 31.63507 | 119.25531 | 15852 ft | 263 kts | 92° |
| 2026-05-09 15:04 | 31.63459 | 119.26926 | 15722 ft | 254 kts | 92° |
| 2026-05-09 15:04 | 31.63391 | 119.28950 | 15443 ft | 243 kts | 92° |
| 2026-05-09 15:06 | 31.62927 | 119.42364 | 13728 ft | 225 kts | 92° |
| 2026-05-09 15:06 | 31.62884 | 119.43585 | 13559 ft | 225 kts | 92° |
| 2026-05-09 15:06 | 31.62896 | 119.45403 | 13291 ft | 227 kts | 78° |
| 2026-05-09 15:06 | 31.63643 | 119.46983 | 13016 ft | 223 kts | 38° |
| 2026-05-09 15:07 | 31.65005 | 119.47718 | 12774 ft | 216 kts | 4° |
| 2026-05-09 15:07 | 31.66450 | 119.47500 | 12523 ft | 208 kts | 333° |
| 2026-05-09 15:07 | 31.67580 | 119.46510 | 12279 ft | 203 kts | 306° |
| 2026-05-09 15:07 | 31.68382 | 119.44554 | 11974 ft | 200 kts | 288° |
| 2026-05-09 15:08 | 31.68672 | 119.43520 | 11807 ft | 201 kts | 287° |
| 2026-05-09 15:08 | 31.69521 | 119.40383 | 11324 ft | 203 kts | 287° |
| 2026-05-09 15:08 | 31.69948 | 119.38808 | 11088 ft | 203 kts | 287° |
| 2026-05-09 15:09 | 31.70523 | 119.36697 | 10769 ft | 204 kts | 287° |
| 2026-05-09 15:10 | 31.73298 | 119.26574 | 9111 ft | 192 kts | 287° |
| 2026-05-09 15:11 | 31.73707 | 119.25086 | 8861 ft | 191 kts | 287° |
| 2026-05-09 15:11 | 31.74112 | 119.23608 | 8603 ft | 190 kts | 287° |
| 2026-05-09 15:11 | 31.74516 | 119.22133 | 8356 ft | 190 kts | 287° |
| 2026-05-09 15:11 | 31.75055 | 119.20169 | 8029 ft | 190 kts | 287° |
| 2026-05-09 15:12 | 31.75324 | 119.19187 | 7874 ft | 190 kts | 287° |
| 2026-05-09 15:12 | 31.75863 | 119.17220 | 7557 ft | 190 kts | 287° |
| 2026-05-09 15:12 | 31.76134 | 119.16231 | 7389 ft | 191 kts | 287° |
| 2026-05-09 15:12 | 31.76674 | 119.14255 | 7071 ft | 191 kts | 287° |
| 2026-05-09 15:13 | 31.76945 | 119.13265 | 6959 ft | 190 kts | 287° |
| 2026-05-09 15:13 | 31.77349 | 119.11787 | 6924 ft | 192 kts | 287° |
| 2026-05-09 15:13 | 31.77756 | 119.10298 | 6882 ft | 190 kts | 287° |
| 2026-05-09 15:13 | 31.78289 | 119.08348 | 6876 ft | 188 kts | 287° |
| 2026-05-09 15:14 | 31.78556 | 119.07370 | 6886 ft | 189 kts | 287° |
| 2026-05-09 15:14 | 31.78957 | 119.05899 | 6882 ft | 190 kts | 287° |
| 2026-05-09 15:14 | 31.79358 | 119.04426 | 6877 ft | 190 kts | 287° |
| 2026-05-09 15:14 | 31.79894 | 119.02460 | 6882 ft | 189 kts | 287° |
| 2026-05-09 15:15 | 31.80161 | 119.01482 | 6871 ft | 189 kts | 287° |
| 2026-05-09 15:15 | 31.80560 | 119.00015 | 6884 ft | 189 kts | 287° |
| 2026-05-09 15:15 | 31.80959 | 118.98551 | 6876 ft | 188 kts | 287° |
| 2026-05-09 15:15 | 31.81489 | 118.96603 | 6876 ft | 188 kts | 287° |
| 2026-05-09 15:16 | 31.81753 | 118.95630 | 6887 ft | 188 kts | 287° |
| 2026-05-09 15:16 | 31.82150 | 118.94169 | 6879 ft | 188 kts | 287° |
| 2026-05-09 15:16 | 31.82549 | 118.92706 | 6883 ft | 188 kts | 289° |
| 2026-05-09 15:16 | 31.83266 | 118.91437 | 6875 ft | 189 kts | 321° |
| 2026-05-09 15:17 | 31.84414 | 118.90692 | 6876 ft | 191 kts | 339° |
| 2026-05-09 15:17 | 31.85737 | 118.90515 | 6824 ft | 198 kts | 6° |
| 2026-05-09 15:17 | 31.87038 | 118.91059 | 6653 ft | 200 kts | 31° |
| 2026-05-09 15:17 | 31.88275 | 118.92631 | 6390 ft | 197 kts | 59° |
| 2026-05-09 15:18 | 31.88670 | 118.93591 | 6257 ft | 197 kts | 73° |
| 2026-05-09 15:18 | 31.88840 | 118.95169 | 6113 ft | 195 kts | 83° |
| 2026-05-09 15:18 | 31.89417 | 118.96587 | 5898 ft | 195 kts | 37° |
| 2026-05-09 15:18 | 31.90874 | 118.97813 | 5708 ft | 200 kts | 52° |
| 2026-05-09 15:19 | 31.91366 | 118.98726 | 5647 ft | 198 kts | 61° |
| 2026-05-09 15:19 | 31.92105 | 119.00115 | 5465 ft | 202 kts | 56° |
| 2026-05-09 15:19 | 31.92878 | 119.01496 | 5286 ft | 203 kts | 57° |
| 2026-05-09 15:19 | 31.93886 | 119.03365 | 5036 ft | 203 kts | 64° |
| 2026-05-09 15:20 | 31.94151 | 119.04418 | 4887 ft | 202 kts | 91° |
| 2026-05-09 15:20 | 31.92831 | 119.06952 | 4623 ft | 183 kts | 149° |
| 2026-05-09 15:20 | 31.91408 | 119.08022 | 4408 ft | 182 kts | 152° |
| 2026-05-09 15:21 | 31.90333 | 119.08807 | 4245 ft | 182 kts | 152° |
| 2026-05-09 15:21 | 31.89617 | 119.09330 | 4145 ft | 182 kts | 152° |
| 2026-05-09 15:21 | 31.88191 | 119.10370 | 3940 ft | 181 kts | 151° |
| 2026-05-09 15:21 | 31.87057 | 119.10964 | 3758 ft | 178 kts | 176° |